Time;durP1;ratioP1;P1;durP2;ratioP2;P2;SDS_P1;SDS_P2;PMS_P1;PMS_P2;Temp;Humidity;BMP_temperature;BMP_pressure;BME280_temperature;BME280_humidity;BME280_pressure;Samples;Min_cycle;Max_cycle;Signal;HPM_P1;HPM_P2
2023/10/30 00:02:23;;;;;;;5.07;1.40;;;12.70;73.10;;;;;;5056422;28;20025;-75
2023/10/30 00:04:50;;;;;;;7.10;1.35;;;12.70;73.10;;;;;;5059282;28;20032;-76
2023/10/30 00:07:15;;;;;;;7.57;1.88;;;12.70;73.20;;;;;;5057670;28;20365;-76
2023/10/30 00:09:42;;;;;;;6.32;1.98;;;12.70;73.10;;;;;;5057619;28;20627;-75
2023/10/30 00:12:08;;;;;;;3.15;1.02;;;12.70;73.10;;;;;;5055768;28;20046;-75
2023/10/30 00:14:34;;;;;;;6.47;1.52;;;12.80;73.30;;;;;;5058834;28;20043;-75
2023/10/30 00:17:00;;;;;;;8.00;1.10;;;12.70;73.20;;;;;;5051572;28;20339;-76
2023/10/30 00:19:25;;;;;;;10.93;2.15;;;12.70;73.20;;;;;;5053063;28;20463;-75
2023/10/30 00:21:52;;;;;;;5.88;1.63;;;12.70;73.20;;;;;;5070101;28;20145;-76
2023/10/30 00:24:18;;;;;;;7.95;1.77;;;12.70;73.20;;;;;;5056058;28;20541;-76
2023/10/30 00:26:44;;;;;;;5.88;1.65;;;12.70;73.20;;;;;;5040800;28;20050;-76
2023/10/30 00:29:12;;;;;;;4.53;1.25;;;12.80;73.40;;;;;;5050909;28;20687;-76
2023/10/30 00:31:38;;;;;;;2.85;1.30;;;12.80;73.40;;;;;;5056919;28;20032;-76
2023/10/30 00:34:09;;;;;;;8.85;2.47;;;12.80;73.40;;;;;;5053845;28;20706;-76
2023/10/30 00:36:36;;;;;;;5.55;1.20;;;12.80;73.40;;;;;;5054775;28;20048;-75
2023/10/30 00:39:02;;;;;;;3.15;0.85;;;12.80;73.40;;;;;;5055316;28;20416;-76
2023/10/30 00:41:28;;;;;;;5.18;1.30;;;12.80;73.40;;;;;;5050057;28;20039;-75
2023/10/30 00:43:54;;;;;;;5.30;1.40;;;12.80;73.40;;;;;;5044240;28;20033;-76
2023/10/30 00:46:20;;;;;;;5.65;1.10;;;12.80;73.40;;;;;;5057859;28;20028;-74
2023/10/30 00:48:45;;;;;;;7.82;1.30;;;12.80;73.40;;;;;;5039604;28;20033;-75
2023/10/30 00:51:12;;;;;;;4.88;0.90;;;12.80;73.30;;;;;;5052955;28;20086;-76
2023/10/30 00:53:37;;;;;;;7.68;1.80;;;12.80;73.30;;;;;;5058813;28;20059;-76
2023/10/30 00:56:04;;;;;;;7.18;1.67;;;12.80;73.30;;;;;;5056425;28;20033;-76
2023/10/30 00:58:30;;;;;;;5.10;0.88;;;12.80;73.30;;;;;;5054515;28;20025;-76
2023/10/30 01:00:56;;;;;;;3.00;1.00;;;12.80;73.30;;;;;;5059320;28;20141;-75
2023/10/30 01:03:23;;;;;;;4.20;0.90;;;12.80;73.30;;;;;;5058438;28;20416;-76
2023/10/30 01:05:59;;;;;;;2.97;1.02;;;12.80;73.40;;;;;;5043532;28;20453;-75
2023/10/30 01:08:26;;;;;;;4.85;0.85;;;12.80;73.30;;;;;;5055437;28;20047;-75
2023/10/30 01:10:55;;;;;;;5.30;0.85;;;12.80;73.40;;;;;;5042712;28;20394;-75
2023/10/30 01:13:21;;;;;;;5.13;1.10;;;12.80;73.40;;;;;;5055076;28;20072;-76
2023/10/30 01:15:47;;;;;;;2.15;0.90;;;12.80;73.30;;;;;;5041058;28;20067;-75
2023/10/30 01:18:15;;;;;;;3.28;1.05;;;12.80;73.30;;;;;;5055660;28;20476;-76
2023/10/30 01:20:41;;;;;;;4.03;0.77;;;12.80;73.40;;;;;;5060022;28;20127;-76
2023/10/30 01:23:08;;;;;;;4.07;1.10;;;12.80;73.40;;;;;;5055761;28;20142;-76
2023/10/30 01:25:34;;;;;;;3.05;1.10;;;12.80;73.30;;;;;;5054553;28;20496;-75
2023/10/30 01:28:00;;;;;;;5.15;1.10;;;12.80;73.40;;;;;;5086508;28;20466;-76
2023/10/30 01:30:26;;;;;;;4.32;1.00;;;12.80;73.40;;;;;;5038741;28;20901;-76
2023/10/30 01:32:52;;;;;;;3.60;1.10;;;12.90;73.50;;;;;;5053743;28;20025;-76
2023/10/30 01:35:18;;;;;;;3.90;0.90;;;12.90;73.50;;;;;;5052256;28;20036;-76
2023/10/30 01:37:44;;;;;;;5.22;1.20;;;12.90;73.50;;;;;;5052649;28;20025;-75
2023/10/30 01:40:10;;;;;;;3.13;1.02;;;12.80;73.40;;;;;;5048071;28;20527;-75
2023/10/30 01:42:36;;;;;;;2.05;0.60;;;12.90;73.50;;;;;;5048443;28;20127;-75
2023/10/30 01:45:02;;;;;;;5.25;1.35;;;12.90;73.50;;;;;;5059351;28;20298;-76
2023/10/30 01:47:28;;;;;;;3.05;0.70;;;12.90;73.50;;;;;;5056546;28;20035;-76
2023/10/30 01:49:56;;;;;;;6.05;1.38;;;12.90;74.10;;;;;;5058030;28;20282;-76
2023/10/30 01:52:22;;;;;;;3.92;0.90;;;12.90;74.10;;;;;;5057035;28;20032;-76
2023/10/30 01:54:50;;;;;;;3.83;1.23;;;12.90;73.50;;;;;;5058778;28;20391;-75
2023/10/30 01:57:18;;;;;;;3.60;1.02;;;12.90;73.50;;;;;;5057563;28;20054;-75
2023/10/30 01:59:45;;;;;;;2.15;1.63;;;12.90;73.50;;;;;;5060069;28;20503;-75
2023/10/30 02:02:11;;;;;;;7.78;1.17;;;12.90;73.60;;;;;;5063758;28;20609;-75
2023/10/30 02:04:37;;;;;;;3.22;1.17;;;12.90;73.50;;;;;;5043775;28;20039;-76
2023/10/30 02:07:03;;;;;;;4.43;1.10;;;12.90;73.50;;;;;;5061345;28;20396;-75
2023/10/30 02:09:31;;;;;;;2.28;0.93;;;12.90;73.90;;;;;;5061694;28;20040;-76
2023/10/30 02:11:59;;;;;;;5.15;1.65;;;12.90;73.60;;;;;;5059829;28;20478;-76
2023/10/30 02:14:25;;;;;;;3.95;1.00;;;12.90;73.60;;;;;;5062168;28;20139;-76
2023/10/30 02:16:51;;;;;;;4.05;0.70;;;12.90;73.60;;;;;;5062430;28;20072;-76
2023/10/30 02:19:22;;;;;;;2.45;0.70;;;12.90;73.60;;;;;;5061185;28;20692;-76
2023/10/30 02:21:49;;;;;;;3.67;1.23;;;12.90;73.60;;;;;;5076599;28;20036;-76
2023/10/30 02:24:15;;;;;;;7.25;1.40;;;12.90;73.60;;;;;;5059099;28;20032;-76
2023/10/30 02:26:41;;;;;;;3.75;0.80;;;12.90;73.60;;;;;;5058808;28;20602;-76
2023/10/30 02:29:09;;;;;;;1.75;0.60;;;12.90;73.60;;;;;;5055438;28;20036;-76
2023/10/30 02:31:35;;;;;;;4.97;0.70;;;12.90;73.60;;;;;;5059396;28;20372;-77
2023/10/30 02:34:02;;;;;;;3.20;0.70;;;12.90;73.50;;;;;;5062289;28;20040;-76
2023/10/30 02:36:28;;;;;;;3.08;0.60;;;12.90;73.60;;;;;;5059791;28;20384;-76
2023/10/30 02:38:54;;;;;;;3.38;0.95;;;12.90;73.60;;;;;;5057584;28;20040;-76
2023/10/30 02:41:21;;;;;;;2.53;0.65;;;12.90;73.60;;;;;;5053546;28;20037;-77
2023/10/30 02:43:47;;;;;;;2.35;0.80;;;12.90;73.50;;;;;;5043956;28;20119;-77
2023/10/30 02:46:13;;;;;;;3.90;0.70;;;12.90;73.50;;;;;;5066378;28;20476;-76
2023/10/30 02:48:39;;;;;;;2.85;0.70;;;12.90;73.60;;;;;;5062370;28;20492;-76
2023/10/30 02:51:05;;;;;;;2.75;0.90;;;12.90;73.60;;;;;;5061859;28;20524;-76
2023/10/30 02:53:31;;;;;;;5.15;1.20;;;12.80;73.40;;;;;;5062679;28;20102;-76
2023/10/30 02:55:59;;;;;;;3.22;0.95;;;12.90;73.60;;;;;;5043646;28;20110;-76
2023/10/30 02:58:25;;;;;;;4.20;0.77;;;12.80;73.40;;;;;;5059486;28;20393;-76
2023/10/30 03:00:54;;;;;;;4.05;1.88;;;12.80;73.50;;;;;;5060299;28;20025;-76
2023/10/30 03:03:21;;;;;;;4.55;0.73;;;12.80;73.50;;;;;;5058494;28;20491;-76
2023/10/30 03:05:48;;;;;;;1.65;0.60;;;12.80;73.50;;;;;;5062106;28;20391;-76
2023/10/30 03:08:14;;;;;;;5.30;2.53;;;12.80;73.50;;;;;;5061362;28;20773;-77
2023/10/30 03:10:40;;;;;;;4.32;1.00;;;12.80;73.50;;;;;;5060048;28;20063;-76
2023/10/30 03:13:06;;;;;;;3.20;0.90;;;12.80;73.50;;;;;;5060291;28;20420;-77
2023/10/30 03:15:32;;;;;;;3.35;0.88;;;12.80;73.50;;;;;;5063474;28;20329;-76
2023/10/30 03:17:58;;;;;;;1.90;0.80;;;12.80;73.60;;;;;;5061219;28;20025;-76
2023/10/30 03:20:24;;;;;;;4.05;1.40;;;12.80;73.60;;;;;;5063235;28;20577;-76
2023/10/30 03:22:51;;;;;;;3.35;0.90;;;12.80;73.60;;;;;;5060782;28;20455;-76
2023/10/30 03:25:17;;;;;;;3.67;1.15;;;12.80;73.60;;;;;;5045320;28;20603;-76
2023/10/30 03:27:43;;;;;;;4.70;1.27;;;12.80;73.60;;;;;;5055714;28;20039;-76
2023/10/30 03:30:10;;;;;;;4.70;0.88;;;12.80;73.70;;;;;;5055105;28;20032;-76
2023/10/30 03:32:36;;;;;;;5.30;0.90;;;12.80;73.70;;;;;;5060372;28;20025;-76
2023/10/30 03:35:02;;;;;;;5.80;1.10;;;12.70;73.50;;;;;;5059534;28;20044;-76
2023/10/30 03:37:28;;;;;;;6.45;1.35;;;12.70;73.60;;;;;;5058948;28;20640;-76
2023/10/30 03:39:54;;;;;;;4.20;0.98;;;12.70;73.60;;;;;;5060874;28;20044;-76
2023/10/30 03:42:20;;;;;;;3.88;0.95;;;12.70;73.60;;;;;;5055879;28;20028;-76
2023/10/30 03:44:46;;;;;;;2.42;0.80;;;12.60;73.40;;;;;;5062242;28;20496;-76
2023/10/30 03:47:12;;;;;;;3.78;0.57;;;12.60;73.50;;;;;;5062265;28;20460;-76
2023/10/30 03:49:40;;;;;;;3.83;0.90;;;12.60;73.50;;;;;;5061308;28;20149;-75
2023/10/30 03:52:06;;;;;;;3.92;1.17;;;12.60;73.60;;;;;;5061494;28;20139;-75
2023/10/30 03:54:32;;;;;;;5.28;1.48;;;12.60;73.60;;;;;;5059111;28;20463;-78
2023/10/30 03:56:57;;;;;;;5.38;1.17;;;12.60;73.60;;;;;;5043360;28;20033;-75
2023/10/30 03:59:24;;;;;;;2.95;0.80;;;12.50;73.50;;;;;;5058622;28;20435;-78
2023/10/30 04:01:50;;;;;;;4.97;1.85;;;12.50;73.50;;;;;;5060954;28;20313;-77
2023/10/30 04:04:16;;;;;;;4.38;1.20;;;12.50;73.60;;;;;;5060714;28;20025;-77
2023/10/30 04:06:42;;;;;;;3.92;1.10;;;12.50;73.70;;;;;;5062187;28;20029;-77
2023/10/30 04:09:09;;;;;;;2.97;0.90;;;12.50;73.70;;;;;;5055393;28;20499;-77
2023/10/30 04:11:35;;;;;;;1.63;0.70;;;12.50;73.70;;;;;;5059219;28;20147;-77
2023/10/30 04:14:01;;;;;;;6.15;1.10;;;12.40;73.60;;;;;;5061778;28;20518;-77
2023/10/30 04:16:28;;;;;;;3.75;0.70;;;12.40;73.60;;;;;;5060760;28;20484;-77
2023/10/30 04:18:54;;;;;;;3.47;1.30;;;12.40;73.60;;;;;;5059833;28;20025;-77
2023/10/30 04:21:20;;;;;;;1.77;1.17;;;12.40;73.60;;;;;;5043531;28;20105;-77
2023/10/30 04:23:47;;;;;;;2.67;0.82;;;12.30;73.50;;;;;;5061669;28;20480;-77
2023/10/30 04:26:13;;;;;;;5.32;1.02;;;12.30;73.60;;;;;;5058936;28;20060;-77
2023/10/30 04:28:39;;;;;;;7.90;0.98;;;12.40;73.80;;;;;;5054679;28;20080;-77
2023/10/30 04:31:06;;;;;;;5.10;1.23;;;12.30;73.60;;;;;;5059659;28;20064;-77
2023/10/30 04:33:32;;;;;;;6.38;1.35;;;12.30;73.70;;;;;;5061355;28;20032;-77
2023/10/30 04:36:04;;;;;;;2.70;1.25;;;12.30;73.70;;;;;;5061210;28;20447;-77
2023/10/30 04:38:31;;;;;;;2.83;0.63;;;12.30;73.80;;;;;;5059961;28;20075;-77
2023/10/30 04:40:58;;;;;;;3.55;1.25;;;12.20;73.70;;;;;;5054744;28;20157;-77
2023/10/30 04:43:24;;;;;;;6.43;1.50;;;12.20;73.70;;;;;;5055965;28;20063;-75
2023/10/30 04:45:50;;;;;;;5.82;2.63;;;12.20;73.80;;;;;;5062882;28;20025;-75
2023/10/30 04:48:16;;;;;;;6.35;1.20;;;12.20;73.80;;;;;;5058100;28;20067;-75
2023/10/30 04:50:42;;;;;;;4.05;1.05;;;12.20;73.90;;;;;;5060791;28;20479;-75
2023/10/30 04:53:07;;;;;;;3.30;1.05;;;12.20;73.90;;;;;;5053707;28;20032;-76
2023/10/30 04:55:34;;;;;;;4.80;0.88;;;12.20;73.90;;;;;;5061712;28;20071;-76
2023/10/30 04:58:00;;;;;;;4.13;1.05;;;12.20;74.00;;;;;;5059447;28;20467;-76
2023/10/30 05:00:26;;;;;;;6.60;1.25;;;12.20;74.00;;;;;;5059610;28;20016;-75
2023/10/30 05:02:52;;;;;;;6.28;1.42;;;12.20;74.10;;;;;;5059794;28;20348;-75
2023/10/30 05:05:18;;;;;;;7.72;2.03;;;12.20;74.10;;;;;;5061068;28;20051;-76
2023/10/30 05:07:44;;;;;;;5.18;1.23;;;12.20;74.50;;;;;;5059569;28;20036;-74
2023/10/30 05:10:12;;;;;;;5.22;1.10;;;12.20;74.20;;;;;;5060224;28;20036;-75
2023/10/30 05:12:38;;;;;;;8.10;2.10;;;12.20;74.20;;;;;;5058305;28;20557;-75
2023/10/30 05:15:05;;;;;;;3.45;1.23;;;12.20;74.20;;;;;;5061438;28;20426;-74
2023/10/30 05:17:31;;;;;;;5.70;1.10;;;12.20;74.20;;;;;;5059338;28;20116;-75
2023/10/30 05:19:57;;;;;;;5.47;1.58;;;12.20;74.30;;;;;;5062604;28;20123;-75
2023/10/30 05:22:24;;;;;;;5.63;0.95;;;12.30;74.50;;;;;;5059388;28;20559;-75
2023/10/30 05:24:50;;;;;;;7.40;1.83;;;12.20;74.40;;;;;;5061722;28;20024;-75
2023/10/30 05:27:16;;;;;;;5.13;1.27;;;12.20;74.40;;;;;;5058992;28;20376;-78
2023/10/30 05:29:42;;;;;;;5.35;1.83;;;12.20;74.40;;;;;;5059276;28;20403;-75
2023/10/30 05:32:08;;;;;;;8.63;1.55;;;12.20;74.40;;;;;;5058056;28;20043;-75
2023/10/30 05:34:34;;;;;;;4.55;1.10;;;12.30;74.60;;;;;;5055822;28;20603;-75
2023/10/30 05:37:01;;;;;;;5.03;1.58;;;12.30;74.60;;;;;;5062772;28;20028;-75
2023/10/30 05:39:27;;;;;;;5.25;1.35;;;12.30;74.70;;;;;;5061185;28;20534;-75
2023/10/30 05:41:53;;;;;;;7.45;3.13;;;12.30;74.70;;;;;;5057167;28;20040;-75
2023/10/30 05:44:19;;;;;;;4.97;1.35;;;12.30;74.80;;;;;;5064682;28;20041;-75
2023/10/30 05:46:45;;;;;;;2.78;1.00;;;12.30;74.80;;;;;;5062998;28;20047;-75
2023/10/30 05:49:11;;;;;;;4.65;1.10;;;12.30;74.80;;;;;;5060341;28;20040;-75
2023/10/30 05:51:37;;;;;;;5.35;1.27;;;12.30;74.80;;;;;;5059045;28;20051;-75
2023/10/30 05:54:03;;;;;;;7.80;1.30;;;12.30;74.80;;;;;;5060911;28;20098;-75
2023/10/30 05:56:29;;;;;;;5.63;1.25;;;12.30;74.80;;;;;;5059759;28;20032;-75
2023/10/30 05:58:57;;;;;;;5.65;1.38;;;12.30;74.80;;;;;;5059417;28;20383;-75
2023/10/30 06:01:23;;;;;;;5.32;1.48;;;12.30;74.80;;;;;;5057013;28;20037;-75
2023/10/30 06:03:48;;;;;;;6.25;1.30;;;12.30;74.80;;;;;;5068637;28;20052;-75
2023/10/30 06:06:14;;;;;;;3.28;1.10;;;12.30;74.80;;;;;;5062811;28;20391;-75
2023/10/30 06:08:41;;;;;;;5.60;1.27;;;12.30;74.80;;;;;;5061524;28;20037;-77
2023/10/30 06:11:06;;;;;;;2.67;0.90;;;12.30;74.80;;;;;;5061268;28;20612;-77
2023/10/30 06:13:32;;;;;;;4.05;1.30;;;12.30;74.80;;;;;;5060023;28;20123;-77
2023/10/30 06:15:58;;;;;;;5.68;1.60;;;12.30;74.80;;;;;;5059328;28;20036;-77
2023/10/30 06:18:25;;;;;;;6.28;1.50;;;12.30;74.90;;;;;;5059081;28;20059;-77
2023/10/30 06:20:51;;;;;;;6.95;1.48;;;12.30;74.90;;;;;;5059989;28;20336;-77
2023/10/30 06:23:17;;;;;;;5.78;1.63;;;12.30;74.90;;;;;;5062410;28;20430;-76
2023/10/30 06:25:44;;;;;;;6.40;1.15;;;12.30;74.90;;;;;;5059912;28;20044;-77
2023/10/30 06:28:12;;;;;;;5.03;0.93;;;12.20;74.80;;;;;;5057756;28;20537;-77
2023/10/30 06:30:38;;;;;;;4.53;1.40;;;12.20;74.80;;;;;;5054888;28;20542;-76
2023/10/30 06:33:04;;;;;;;4.25;1.40;;;12.20;74.80;;;;;;5064109;28;20076;-78
2023/10/30 06:35:30;;;;;;;7.82;2.22;;;12.20;74.90;;;;;;5054721;28;20035;-77
2023/10/30 06:37:56;;;;;;;5.22;1.35;;;12.20;74.90;;;;;;5058592;28;20490;-77
2023/10/30 06:40:22;;;;;;;4.28;1.58;;;12.20;75.00;;;;;;5054354;28;20057;-77
2023/10/30 06:42:48;;;;;;;6.25;1.50;;;12.20;75.00;;;;;;5050839;28;20472;-77
2023/10/30 06:45:14;;;;;;;5.38;1.13;;;12.20;75.00;;;;;;5064324;28;20151;-76
2023/10/30 06:47:41;;;;;;;4.68;1.30;;;12.20;75.00;;;;;;5061746;28;20036;-78
2023/10/30 06:50:07;;;;;;;7.82;1.50;;;12.20;75.00;;;;;;5058021;28;20071;-79
2023/10/30 06:52:33;;;;;;;6.63;1.77;;;12.20;75.00;;;;;;5040369;28;20485;-80
2023/10/30 06:55:00;;;;;;;8.02;1.80;;;12.20;75.00;;;;;;5059146;28;20031;-81
2023/10/30 06:57:25;;;;;;;6.63;1.88;;;12.30;75.30;;;;;;5056449;28;20086;-79
2023/10/30 06:59:54;;;;;;;10.40;1.60;;;12.30;75.50;;;;;;5057512;28;20241;-79
2023/10/30 07:02:19;;;;;;;6.40;1.27;;;12.30;75.80;;;;;;5059591;28;20040;-78
2023/10/30 07:04:45;;;;;;;8.02;1.52;;;12.40;76.20;;;;;;5059028;28;20358;-79
2023/10/30 07:07:12;;;;;;;8.40;1.20;;;12.40;76.70;;;;;;5057310;28;20107;-79
2023/10/30 07:09:37;;;;;;;6.88;1.13;;;12.50;77.20;;;;;;5061889;28;20040;-79
2023/10/30 07:12:04;;;;;;;5.55;1.45;;;12.60;77.50;;;;;;5056792;28;20549;-81
2023/10/30 07:14:29;;;;;;;6.85;1.30;;;12.70;77.80;;;;;;5059924;28;20287;-79
2023/10/30 07:16:55;;;;;;;8.85;2.00;;;12.60;77.60;;;;;;5058917;28;20098;-79
2023/10/30 07:19:23;;;;;;;6.13;1.77;;;12.70;77.80;;;;;;5063510;28;20111;-79
2023/10/30 07:21:49;;;;;;;4.40;2.38;;;12.60;77.70;;;;;;5058498;28;20036;-79
2023/10/30 07:24:15;;;;;;;6.28;1.67;;;12.70;77.90;;;;;;5056726;28;20519;-80
2023/10/30 07:26:40;;;;;;;5.28;1.42;;;12.70;77.90;;;;;;5054022;28;20039;-80
2023/10/30 07:29:07;;;;;;;7.07;1.52;;;12.70;77.90;;;;;;5055183;28;20036;-80
2023/10/30 07:31:33;;;;;;;11.02;1.55;;;12.70;77.90;;;;;;5056717;28;20111;-80
2023/10/30 07:33:59;;;;;;;6.70;1.30;;;12.70;77.90;;;;;;5053320;28;20031;-80
2023/10/30 07:36:26;;;;;;;6.18;1.10;;;12.70;77.90;;;;;;5057039;28;20731;-80
2023/10/30 07:38:51;;;;;;;8.80;1.42;;;12.70;77.80;;;;;;5058997;28;20044;-79
2023/10/30 07:41:17;;;;;;;5.57;1.42;;;12.80;78.00;;;;;;5049974;28;20040;-78
2023/10/30 07:43:43;;;;;;;5.45;1.35;;;12.80;78.00;;;;;;5057695;28;20029;-78
2023/10/30 07:46:14;;;;;;;6.25;1.75;;;12.80;78.00;;;;;;5058244;28;20123;-78
2023/10/30 07:48:40;;;;;;;5.78;1.58;;;12.80;78.00;;;;;;5058555;28;20048;-78
2023/10/30 07:51:06;;;;;;;2.90;1.00;;;12.80;77.90;;;;;;5055532;28;20047;-79
2023/10/30 07:53:32;;;;;;;5.63;1.23;;;12.80;77.90;;;;;;5057430;28;20566;-78
2023/10/30 07:56:01;;;;;;;5.43;1.67;;;12.80;77.90;;;;;;5053834;28;20028;-78
2023/10/30 07:58:27;;;;;;;6.82;1.50;;;12.90;78.00;;;;;;5057680;28;20044;-78
2023/10/30 08:00:54;;;;;;;5.63;1.75;;;12.90;78.00;;;;;;5056816;28;20066;-78
2023/10/30 08:03:20;;;;;;;4.88;1.30;;;12.90;77.90;;;;;;5057848;28;20028;-78
2023/10/30 08:05:46;;;;;;;6.97;1.35;;;12.90;77.90;;;;;;5056694;28;20036;-80
2023/10/30 08:08:12;;;;;;;4.53;1.40;;;13.00;78.00;;;;;;5058419;28;20056;-79
2023/10/30 08:10:38;;;;;;;5.70;1.60;;;13.00;77.90;;;;;;5060446;28;20056;-80
2023/10/30 08:13:04;;;;;;;5.55;1.45;;;13.00;77.90;;;;;;5058991;28;20028;-80
2023/10/30 08:15:30;;;;;;;8.35;1.52;;;13.10;78.00;;;;;;5042324;28;20036;-80
2023/10/30 08:17:56;;;;;;;4.50;1.42;;;13.10;77.90;;;;;;5059775;28;20042;-80
2023/10/30 08:20:22;;;;;;;6.18;1.30;;;13.20;78.00;;;;;;5062426;28;20531;-81
2023/10/30 08:22:48;;;;;;;7.03;1.48;;;13.20;77.90;;;;;;5041153;28;20037;-80
2023/10/30 08:25:15;;;;;;;8.23;1.45;;;13.20;77.90;;;;;;5056948;28;20028;-79
2023/10/30 08:27:41;;;;;;;6.97;1.42;;;13.30;78.00;;;;;;5060718;28;20040;-78
2023/10/30 08:30:08;;;;;;;6.35;1.48;;;13.30;77.90;;;;;;5051466;28;20446;-78
2023/10/30 08:32:37;;;;;;;5.70;1.17;;;13.40;78.00;;;;;;5049346;28;20107;-79
2023/10/30 08:35:03;;;;;;;5.00;1.33;;;13.40;78.00;;;;;;5052522;28;20024;-78
2023/10/30 08:37:30;;;;;;;4.07;1.40;;;13.50;78.20;;;;;;5065818;28;20532;-79
2023/10/30 08:39:56;;;;;;;5.68;1.52;;;13.50;78.10;;;;;;5061055;28;20399;-79
2023/10/30 08:42:22;;;;;;;6.15;2.42;;;13.50;78.00;;;;;;5055351;28;20507;-79
2023/10/30 08:44:48;;;;;;;8.07;1.48;;;13.50;77.90;;;;;;5061807;28;20044;-78
2023/10/30 08:47:14;;;;;;;5.80;1.48;;;13.60;78.00;;;;;;5059766;28;20043;-79
2023/10/30 08:49:42;;;;;;;8.77;1.73;;;13.70;78.10;;;;;;5057439;28;20068;-79
2023/10/30 08:52:09;;;;;;;5.00;1.40;;;13.80;78.20;;;;;;5056530;28;20523;-79
2023/10/30 08:54:35;;;;;;;4.28;1.27;;;13.80;78.00;;;;;;5053333;28;20036;-79
2023/10/30 08:57:01;;;;;;;3.78;1.50;;;13.80;77.90;;;;;;5056203;28;20086;-79
2023/10/30 08:59:27;;;;;;;4.78;1.67;;;13.90;78.00;;;;;;5054963;28;20614;-79
2023/10/30 09:01:53;;;;;;;5.45;1.30;;;13.90;77.80;;;;;;5055183;28;20190;-79
2023/10/30 09:04:19;;;;;;;6.70;1.30;;;14.00;77.90;;;;;;5061450;28;20504;-79
2023/10/30 09:06:45;;;;;;;6.63;3.88;;;14.00;77.90;;;;;;5056196;28;20043;-80
2023/10/30 09:09:12;;;;;;;4.68;1.30;;;14.00;77.80;;;;;;5043552;28;20032;-79
2023/10/30 09:11:38;;;;;;;4.82;1.40;;;14.10;77.90;;;;;;5055260;28;20024;-79
2023/10/30 09:14:04;;;;;;;5.00;1.05;;;14.10;77.90;;;;;;5044753;28;20032;-79
2023/10/30 09:16:30;;;;;;;4.03;1.10;;;14.20;77.90;;;;;;5054505;28;20033;-79
2023/10/30 09:18:57;;;;;;;5.40;1.55;;;14.20;77.80;;;;;;5061398;28;20152;-79
2023/10/30 09:21:23;;;;;;;7.63;1.65;;;14.30;77.80;;;;;;5058791;28;20033;-79
2023/10/30 09:23:49;;;;;;;5.22;1.58;;;14.30;77.70;;;;;;5057518;28;20028;-79
2023/10/30 09:26:15;;;;;;;7.40;2.33;;;14.40;77.80;;;;;;5059715;28;20368;-79
2023/10/30 09:28:41;;;;;;;4.68;1.30;;;14.30;77.60;;;;;;5053283;28;20037;-79
2023/10/30 09:31:07;;;;;;;4.47;1.52;;;14.30;77.50;;;;;;5058452;28;20039;-78
2023/10/30 09:33:34;;;;;;;6.93;1.23;;;14.30;77.50;;;;;;5042093;28;20419;-78
2023/10/30 09:36:00;;;;;;;6.70;1.20;;;14.40;77.60;;;;;;5054567;28;20311;-78
2023/10/30 09:38:27;;;;;;;4.20;1.48;;;14.30;77.40;;;;;;5058609;28;20060;-79
2023/10/30 09:41:00;;;;;;;7.88;1.60;;;14.30;77.40;;;;;;5050775;28;20037;-80
2023/10/30 09:43:30;;;;;;;2.92;0.88;;;14.40;77.50;;;;;;5060920;28;20059;-80
2023/10/30 09:46:06;;;;;;;6.18;1.38;;;14.40;77.50;;;;;;5062055;28;20166;-80
2023/10/30 09:48:35;;;;;;;6.80;1.60;;;14.50;77.60;;;;;;5057908;28;20029;-80
2023/10/30 09:51:08;;;;;;;10.48;1.88;;;14.50;77.50;;;;;;5060033;28;20035;-80
2023/10/30 09:53:36;;;;;;;7.22;2.67;;;14.60;77.50;;;;;;5056306;28;20139;-80
2023/10/30 09:56:06;;;;;;;6.07;1.80;;;14.60;77.30;;;;;;5062295;28;20036;-79
2023/10/30 09:58:34;;;;;;;4.95;1.48;;;14.70;77.40;;;;;;5059064;28;20033;-78
2023/10/30 10:01:01;;;;;;;7.45;2.38;;;14.70;77.40;;;;;;5056210;28;20039;-78
2023/10/30 10:03:29;;;;;;;6.05;1.30;;;14.70;77.30;;;;;;5058021;28;20150;-79
2023/10/30 10:05:56;;;;;;;5.80;1.70;;;14.80;77.30;;;;;;5073992;28;20032;-78
2023/10/30 10:08:23;;;;;;;6.63;2.05;;;14.80;77.30;;;;;;5058131;28;20083;-78
2023/10/30 10:11:00;;;;;;;8.55;1.67;;;14.90;77.30;;;;;;5039972;28;20112;-78
2023/10/30 10:13:37;;;;;;;5.88;2.55;;;14.90;77.20;;;;;;5057426;28;20696;-78
2023/10/30 10:16:04;;;;;;;8.50;2.00;;;14.90;77.10;;;;;;5038629;28;20135;-78
2023/10/30 10:18:35;;;;;;;7.55;1.40;;;14.90;77.10;;;;;;5059138;28;20032;-79
2023/10/30 10:21:04;;;;;;;7.07;1.60;;;14.90;77.00;;;;;;5059447;28;20973;-79
2023/10/30 10:23:36;;;;;;;7.35;2.05;;;14.90;77.00;;;;;;5063660;28;20058;-78
2023/10/30 10:26:13;;;;;;;7.50;2.53;;;14.90;76.90;;;;;;5061089;28;20043;-80
2023/10/30 10:28:40;;;;;;;6.35;1.60;;;14.90;76.90;;;;;;5053161;28;20635;-79
2023/10/30 10:31:07;;;;;;;5.97;1.77;;;15.00;77.00;;;;;;5059119;28;20060;-78
2023/10/30 10:33:35;;;;;;;9.07;2.10;;;15.00;76.90;;;;;;5061754;28;20048;-79
2023/10/30 10:36:03;;;;;;;8.93;1.85;;;15.00;76.90;;;;;;5057739;28;20032;-79
2023/10/30 10:38:32;;;;;;;8.05;1.70;;;15.00;76.80;;;;;;5059007;28;20091;-78
2023/10/30 10:40:59;;;;;;;11.65;2.25;;;15.00;76.80;;;;;;5053356;28;21483;-78
2023/10/30 10:43:29;;;;;;;8.57;1.58;;;15.00;76.70;;;;;;5057787;28;20632;-79
2023/10/30 10:45:57;;;;;;;7.68;2.03;;;15.10;76.80;;;;;;5060346;28;20468;-79
2023/10/30 10:48:27;;;;;;;6.50;2.00;;;15.10;76.70;;;;;;5061810;28;20785;-78
2023/10/30 10:50:57;;;;;;;8.10;2.03;;;15.10;76.60;;;;;;5058499;28;20044;-78
2023/10/30 10:53:27;;;;;;;10.50;2.05;;;15.10;76.50;;;;;;5061696;28;20031;-78
2023/10/30 10:55:59;;;;;;;11.50;2.22;;;15.10;76.50;;;;;;5058922;28;20123;-79
2023/10/30 10:58:40;;;;;;;10.27;3.03;;;15.20;76.60;;;;;;5056190;28;20037;-79
2023/10/30 11:01:19;;;;;;;8.20;2.05;;;15.20;76.40;;;;;;5058513;28;20024;-78
2023/10/30 11:03:46;;;;;;;6.53;1.63;;;15.20;76.40;;;;;;5059710;28;20070;-78
2023/10/30 11:06:14;;;;;;;5.53;1.75;;;15.20;76.30;;;;;;5057004;28;20500;-78
2023/10/30 11:09:02;;;;;;;8.25;2.00;;;15.20;76.20;;;;;;5058752;28;20052;-78
2023/10/30 11:11:35;;;;;;;7.85;1.90;;;15.30;76.20;;;;;;5089171;28;20044;-78
2023/10/30 11:14:03;;;;;;;10.38;2.50;;;15.30;76.10;;;;;;5062941;28;20039;-78
2023/10/30 11:16:53;;;;;;;7.63;1.88;;;15.30;76.00;;;;;;5058720;28;20117;-78
2023/10/30 11:19:20;;;;;;;10.57;1.90;;;15.30;76.00;;;;;;5060278;28;20036;-78
2023/10/30 11:21:49;;;;;;;9.13;2.17;;;15.40;76.20;;;;;;5057163;28;20040;-78
2023/10/30 11:24:43;;;;;;;10.52;1.92;;;15.40;76.00;;;;;;5062226;28;20025;-80
2023/10/30 11:27:25;;;;;;;7.07;1.85;;;15.50;75.90;;;;;;5052696;28;20028;-81
2023/10/30 11:29:56;;;;;;;7.03;1.73;;;15.50;75.80;;;;;;5059109;28;20058;-79
2023/10/30 11:32:27;;;;;;;7.93;2.08;;;15.50;75.70;;;;;;5052990;28;20171;-78
2023/10/30 11:34:55;;;;;;;12.50;2.83;;;15.60;75.80;;;;;;5057016;28;20043;-78
2023/10/30 11:37:22;;;;;;;8.98;2.00;;;15.60;75.80;;;;;;5064743;28;20028;-78
2023/10/30 11:39:49;;;;;;;10.68;2.03;;;15.70;75.80;;;;;;5059655;28;20057;-78
2023/10/30 11:42:22;;;;;;;7.25;2.40;;;15.80;75.90;;;;;;5063918;28;20090;-78
2023/10/30 11:44:53;;;;;;;8.70;2.75;;;15.80;75.70;;;;;;5063228;28;20554;-79
2023/10/30 11:47:23;;;;;;;9.88;2.50;;;16.00;75.80;;;;;;5060171;28;20040;-78
2023/10/30 11:49:55;;;;;;;8.93;2.13;;;16.10;75.80;;;;;;5068455;28;20499;-78
2023/10/30 11:52:32;;;;;;;8.50;2.85;;;16.10;75.60;;;;;;5060170;28;20039;-78
2023/10/30 11:55:07;;;;;;;10.00;2.55;;;16.30;75.70;;;;;;5054189;28;20119;-77
2023/10/30 11:57:33;;;;;;;10.77;2.60;;;16.30;75.40;;;;;;5055885;28;20036;-77
2023/10/30 12:00:04;;;;;;;9.30;2.80;;;16.40;75.40;;;;;;5050781;28;20190;-78
2023/10/30 12:02:46;;;;;;;7.07;2.17;;;16.40;75.20;;;;;;5059546;28;20384;-78
2023/10/30 12:05:12;;;;;;;5.18;1.55;;;16.50;75.20;;;;;;5056876;28;20032;-78
2023/10/30 12:07:39;;;;;;;7.63;2.13;;;16.40;74.90;;;;;;5064627;28;20652;-78
2023/10/30 12:10:06;;;;;;;7.25;1.85;;;16.50;75.00;;;;;;5059741;28;20047;-79
2023/10/30 12:12:33;;;;;;;8.95;2.53;;;16.50;74.90;;;;;;5059699;28;20044;-78
2023/10/30 12:15:03;;;;;;;9.10;1.77;;;16.60;75.00;;;;;;5060637;28;20392;-78
2023/10/30 12:17:30;;;;;;;6.72;2.28;;;16.60;74.80;;;;;;5051713;28;20492;-79
2023/10/30 12:19:57;;;;;;;7.35;2.85;;;16.60;74.70;;;;;;5056914;28;20358;-79
2023/10/30 12:22:23;;;;;;;7.10;2.00;;;16.60;74.50;;;;;;5062084;28;20130;-79
2023/10/30 12:24:50;;;;;;;7.50;1.98;;;16.60;74.40;;;;;;5059377;28;20038;-79
2023/10/30 12:27:21;;;;;;;12.70;3.78;;;16.60;74.30;;;;;;5051052;28;20761;-79
2023/10/30 12:29:54;;;;;;;8.10;3.33;;;16.60;74.20;;;;;;5057148;28;20741;-80
2023/10/30 12:32:21;;;;;;;9.73;2.50;;;16.60;74.20;;;;;;5056972;28;20039;-80
2023/10/30 12:34:47;;;;;;;9.60;2.35;;;16.50;74.10;;;;;;5058116;28;20044;-80
2023/10/30 12:37:17;;;;;;;11.57;2.85;;;16.50;74.00;;;;;;5056778;28;20028;-83
2023/10/30 12:40:00;;;;;;;11.25;2.38;;;16.50;74.00;;;;;;5064313;28;20053;-81
2023/10/30 12:42:27;;;;;;;;;;;16.40;73.70;;;;;;5055231;28;20032;-80
2023/10/30 12:44:53;;;;;;;7.95;2.13;;;16.40;73.90;;;;;;5055102;28;19912;-79
2023/10/30 12:47:20;;;;;;;7.55;2.00;;;16.30;73.80;;;;;;5060047;28;20119;-79